sensor_id;sensor_type;location;lat;lon;timestamp;temperature;humidity
17385;DHT22;8810;48.680;8.894;2023-01-25T00:00:52;1.20;99.90
17385;DHT22;8810;48.680;8.894;2023-01-25T00:03:18;1.20;99.90
17385;DHT22;8810;48.680;8.894;2023-01-25T00:05:45;1.20;99.90
17385;DHT22;8810;48.680;8.894;2023-01-25T00:08:13;1.20;99.90
17385;DHT22;8810;48.680;8.894;2023-01-25T00:10:41;1.20;99.90
17385;DHT22;8810;48.680;8.894;2023-01-25T00:13:08;1.20;99.90
17385;DHT22;8810;48.680;8.894;2023-01-25T00:15:34;1.20;99.90
17385;DHT22;8810;48.680;8.894;2023-01-25T00:18:01;1.20;99.90
17385;DHT22;8810;48.680;8.894;2023-01-25T00:20:28;1.20;99.90
17385;DHT22;8810;48.680;8.894;2023-01-25T00:22:55;1.20;99.90
17385;DHT22;8810;48.680;8.894;2023-01-25T00:25:23;1.20;99.90
17385;DHT22;8810;48.680;8.894;2023-01-25T00:27:50;1.20;99.90
17385;DHT22;8810;48.680;8.894;2023-01-25T00:30:17;1.20;99.90
17385;DHT22;8810;48.680;8.894;2023-01-25T00:32:52;1.20;99.90
17385;DHT22;8810;48.680;8.894;2023-01-25T00:35:20;1.30;99.90
17385;DHT22;8810;48.680;8.894;2023-01-25T00:37:47;1.20;99.90
17385;DHT22;8810;48.680;8.894;2023-01-25T00:40:15;1.20;99.90
17385;DHT22;8810;48.680;8.894;2023-01-25T00:42:44;1.20;99.90
17385;DHT22;8810;48.680;8.894;2023-01-25T00:45:11;1.20;99.90
17385;DHT22;8810;48.680;8.894;2023-01-25T00:47:38;1.30;99.90
17385;DHT22;8810;48.680;8.894;2023-01-25T00:50:06;1.20;99.90
17385;DHT22;8810;48.680;8.894;2023-01-25T00:52:33;1.20;99.90
17385;DHT22;8810;48.680;8.894;2023-01-25T00:55:00;1.20;99.90
17385;DHT22;8810;48.680;8.894;2023-01-25T00:57:27;1.20;99.90
17385;DHT22;8810;48.680;8.894;2023-01-25T00:59:55;1.30;99.90
17385;DHT22;8810;48.680;8.894;2023-01-25T01:02:22;1.20;99.90
17385;DHT22;8810;48.680;8.894;2023-01-25T01:04:49;1.30;99.90
17385;DHT22;8810;48.680;8.894;2023-01-25T01:07:16;1.30;99.90
17385;DHT22;8810;48.680;8.894;2023-01-25T01:09:43;1.20;99.90
17385;DHT22;8810;48.680;8.894;2023-01-25T01:12:10;1.30;99.90
17385;DHT22;8810;48.680;8.894;2023-01-25T01:14:36;1.20;99.90
17385;DHT22;8810;48.680;8.894;2023-01-25T01:17:05;1.20;99.90
17385;DHT22;8810;48.680;8.894;2023-01-25T01:19:32;1.20;99.90
17385;DHT22;8810;48.680;8.894;2023-01-25T01:21:59;1.20;99.90
17385;DHT22;8810;48.680;8.894;2023-01-25T01:24:25;1.30;99.90
17385;DHT22;8810;48.680;8.894;2023-01-25T01:26:52;1.20;99.90
17385;DHT22;8810;48.680;8.894;2023-01-25T01:29:19;1.20;99.90
17385;DHT22;8810;48.680;8.894;2023-01-25T01:31:48;1.20;99.90
17385;DHT22;8810;48.680;8.894;2023-01-25T01:34:17;1.20;99.90
17385;DHT22;8810;48.680;8.894;2023-01-25T01:36:44;1.20;99.90
17385;DHT22;8810;48.680;8.894;2023-01-25T01:39:11;1.20;99.90
17385;DHT22;8810;48.680;8.894;2023-01-25T01:41:38;1.20;99.90
17385;DHT22;8810;48.680;8.894;2023-01-25T01:44:05;1.20;99.90
17385;DHT22;8810;48.680;8.894;2023-01-25T01:46:34;1.20;99.90
17385;DHT22;8810;48.680;8.894;2023-01-25T01:49:05;1.20;99.90
17385;DHT22;8810;48.680;8.894;2023-01-25T01:51:43;1.20;99.90
17385;DHT22;8810;48.680;8.894;2023-01-25T01:54:15;1.20;99.90
17385;DHT22;8810;48.680;8.894;2023-01-25T01:56:49;1.30;99.90
17385;DHT22;8810;48.680;8.894;2023-01-25T01:59:18;1.30;99.90
17385;DHT22;8810;48.680;8.894;2023-01-25T02:01:46;1.30;99.90
17385;DHT22;8810;48.680;8.894;2023-01-25T02:04:13;1.30;99.90
17385;DHT22;8810;48.680;8.894;2023-01-25T02:06:46;1.30;99.90
17385;DHT22;8810;48.680;8.894;2023-01-25T02:09:15;1.30;99.90
17385;DHT22;8810;48.680;8.894;2023-01-25T02:11:43;1.30;99.90
17385;DHT22;8810;48.680;8.894;2023-01-25T02:14:11;1.30;99.90
17385;DHT22;8810;48.680;8.894;2023-01-25T02:16:39;1.30;99.90
17385;DHT22;8810;48.680;8.894;2023-01-25T02:19:08;1.30;99.90
17385;DHT22;8810;48.680;8.894;2023-01-25T02:21:40;1.30;99.90
17385;DHT22;8810;48.680;8.894;2023-01-25T02:24:14;1.30;99.90
17385;DHT22;8810;48.680;8.894;2023-01-25T02:26:44;1.30;99.90
17385;DHT22;8810;48.680;8.894;2023-01-25T02:29:12;1.30;99.90
17385;DHT22;8810;48.680;8.894;2023-01-25T02:31:42;1.30;99.90
17385;DHT22;8810;48.680;8.894;2023-01-25T02:34:09;1.30;99.90
17385;DHT22;8810;48.680;8.894;2023-01-25T02:36:35;1.30;99.90
17385;DHT22;8810;48.680;8.894;2023-01-25T02:39:05;1.30;99.90
17385;DHT22;8810;48.680;8.894;2023-01-25T02:41:34;1.30;99.90
17385;DHT22;8810;48.680;8.894;2023-01-25T02:44:04;1.30;99.90
17385;DHT22;8810;48.680;8.894;2023-01-25T02:46:33;1.30;99.90
17385;DHT22;8810;48.680;8.894;2023-01-25T02:49:01;1.30;99.90
17385;DHT22;8810;48.680;8.894;2023-01-25T02:51:30;1.30;99.90
17385;DHT22;8810;48.680;8.894;2023-01-25T02:53:58;1.30;99.90
17385;DHT22;8810;48.680;8.894;2023-01-25T02:56:25;1.30;99.90
17385;DHT22;8810;48.680;8.894;2023-01-25T02:58:52;1.30;99.90
17385;DHT22;8810;48.680;8.894;2023-01-25T03:01:21;1.30;99.90
17385;DHT22;8810;48.680;8.894;2023-01-25T03:03:48;1.30;99.90
17385;DHT22;8810;48.680;8.894;2023-01-25T03:06:15;1.30;99.90
17385;DHT22;8810;48.680;8.894;2023-01-25T03:08:42;1.30;99.90
17385;DHT22;8810;48.680;8.894;2023-01-25T03:11:09;1.30;99.90
17385;DHT22;8810;48.680;8.894;2023-01-25T03:13:36;1.30;99.90
17385;DHT22;8810;48.680;8.894;2023-01-25T03:16:05;1.30;99.90
17385;DHT22;8810;48.680;8.894;2023-01-25T03:18:34;1.30;99.90
17385;DHT22;8810;48.680;8.894;2023-01-25T03:21:05;1.30;99.90
17385;DHT22;8810;48.680;8.894;2023-01-25T03:23:32;1.30;99.90
17385;DHT22;8810;48.680;8.894;2023-01-25T03:26:08;1.30;99.90
17385;DHT22;8810;48.680;8.894;2023-01-25T03:28:36;1.30;99.90
17385;DHT22;8810;48.680;8.894;2023-01-25T03:31:04;1.30;99.90
17385;DHT22;8810;48.680;8.894;2023-01-25T03:33:33;1.30;99.90
17385;DHT22;8810;48.680;8.894;2023-01-25T03:36:00;1.30;99.90
17385;DHT22;8810;48.680;8.894;2023-01-25T03:38:27;1.30;99.90
17385;DHT22;8810;48.680;8.894;2023-01-25T03:40:54;1.30;99.90
17385;DHT22;8810;48.680;8.894;2023-01-25T03:43:21;1.30;99.90
17385;DHT22;8810;48.680;8.894;2023-01-25T03:45:51;1.30;99.90
17385;DHT22;8810;48.680;8.894;2023-01-25T03:48:19;1.30;99.90
17385;DHT22;8810;48.680;8.894;2023-01-25T03:50:50;1.30;99.90
17385;DHT22;8810;48.680;8.894;2023-01-25T03:53:17;1.30;99.90
17385;DHT22;8810;48.680;8.894;2023-01-25T03:55:52;1.30;99.90
17385;DHT22;8810;48.680;8.894;2023-01-25T03:58:20;1.30;99.90
17385;DHT22;8810;48.680;8.894;2023-01-25T04:00:47;1.30;99.90
17385;DHT22;8810;48.680;8.894;2023-01-25T04:03:14;1.30;99.90
17385;DHT22;8810;48.680;8.894;2023-01-25T04:05:42;1.30;99.90
17385;DHT22;8810;48.680;8.894;2023-01-25T04:08:10;1.30;99.90
17385;DHT22;8810;48.680;8.894;2023-01-25T04:10:37;1.30;99.90
17385;DHT22;8810;48.680;8.894;2023-01-25T04:13:04;1.30;99.90
17385;DHT22;8810;48.680;8.894;2023-01-25T04:15:31;1.30;99.90
17385;DHT22;8810;48.680;8.894;2023-01-25T04:17:57;1.30;99.90
17385;DHT22;8810;48.680;8.894;2023-01-25T04:20:24;1.30;99.90
17385;DHT22;8810;48.680;8.894;2023-01-25T04:22:51;1.20;99.90
17385;DHT22;8810;48.680;8.894;2023-01-25T04:25:19;1.20;99.90
17385;DHT22;8810;48.680;8.894;2023-01-25T04:27:46;1.30;99.90
17385;DHT22;8810;48.680;8.894;2023-01-25T04:30:13;1.30;99.90
17385;DHT22;8810;48.680;8.894;2023-01-25T04:32:40;1.30;99.90
17385;DHT22;8810;48.680;8.894;2023-01-25T04:35:08;1.30;99.90
17385;DHT22;8810;48.680;8.894;2023-01-25T04:37:34;1.30;99.90
17385;DHT22;8810;48.680;8.894;2023-01-25T04:40:02;1.30;99.90
17385;DHT22;8810;48.680;8.894;2023-01-25T04:42:30;1.30;99.90
17385;DHT22;8810;48.680;8.894;2023-01-25T04:44:57;1.30;99.90
17385;DHT22;8810;48.680;8.894;2023-01-25T04:47:24;1.30;99.90
17385;DHT22;8810;48.680;8.894;2023-01-25T04:49:51;1.30;99.90
17385;DHT22;8810;48.680;8.894;2023-01-25T04:52:18;1.30;99.90
17385;DHT22;8810;48.680;8.894;2023-01-25T04:54:44;1.30;99.90
17385;DHT22;8810;48.680;8.894;2023-01-25T04:57:11;1.30;99.90
17385;DHT22;8810;48.680;8.894;2023-01-25T04:59:40;1.30;99.90
17385;DHT22;8810;48.680;8.894;2023-01-25T05:02:06;1.30;99.90
17385;DHT22;8810;48.680;8.894;2023-01-25T05:04:33;1.30;99.90
17385;DHT22;8810;48.680;8.894;2023-01-25T05:07:00;1.30;99.90
17385;DHT22;8810;48.680;8.894;2023-01-25T05:09:27;1.30;99.90
17385;DHT22;8810;48.680;8.894;2023-01-25T05:11:55;1.30;99.90
17385;DHT22;8810;48.680;8.894;2023-01-25T05:14:22;1.30;99.90
17385;DHT22;8810;48.680;8.894;2023-01-25T05:16:50;1.30;99.90
17385;DHT22;8810;48.680;8.894;2023-01-25T05:19:17;1.30;99.90
17385;DHT22;8810;48.680;8.894;2023-01-25T05:21:44;1.30;99.90
17385;DHT22;8810;48.680;8.894;2023-01-25T05:24:27;1.30;99.90
17385;DHT22;8810;48.680;8.894;2023-01-25T05:26:54;1.30;99.90
17385;DHT22;8810;48.680;8.894;2023-01-25T05:29:28;1.30;99.90
17385;DHT22;8810;48.680;8.894;2023-01-25T05:31:57;1.30;99.90
17385;DHT22;8810;48.680;8.894;2023-01-25T05:34:24;1.30;99.90
17385;DHT22;8810;48.680;8.894;2023-01-25T05:36:51;1.40;99.90
17385;DHT22;8810;48.680;8.894;2023-01-25T05:39:18;1.40;99.90
17385;DHT22;8810;48.680;8.894;2023-01-25T05:41:45;1.40;99.90
17385;DHT22;8810;48.680;8.894;2023-01-25T05:44:12;1.30;99.90
17385;DHT22;8810;48.680;8.894;2023-01-25T05:46:39;1.30;99.90
17385;DHT22;8810;48.680;8.894;2023-01-25T05:49:07;1.40;99.90
17385;DHT22;8810;48.680;8.894;2023-01-25T05:51:35;1.30;99.90
17385;DHT22;8810;48.680;8.894;2023-01-25T05:54:03;1.30;99.90
17385;DHT22;8810;48.680;8.894;2023-01-25T05:56:30;1.30;99.90
17385;DHT22;8810;48.680;8.894;2023-01-25T05:58:58;1.40;99.90
17385;DHT22;8810;48.680;8.894;2023-01-25T06:01:26;1.40;99.90
17385;DHT22;8810;48.680;8.894;2023-01-25T06:03:53;1.40;99.90
17385;DHT22;8810;48.680;8.894;2023-01-25T06:06:22;1.40;99.90
17385;DHT22;8810;48.680;8.894;2023-01-25T06:08:50;1.40;99.90
17385;DHT22;8810;48.680;8.894;2023-01-25T06:11:19;1.40;99.90
17385;DHT22;8810;48.680;8.894;2023-01-25T06:13:46;1.40;99.90
17385;DHT22;8810;48.680;8.894;2023-01-25T06:16:13;1.40;99.90
17385;DHT22;8810;48.680;8.894;2023-01-25T06:18:40;1.40;99.90
17385;DHT22;8810;48.680;8.894;2023-01-25T06:21:07;1.40;99.90
17385;DHT22;8810;48.680;8.894;2023-01-25T06:23:35;1.40;99.90
17385;DHT22;8810;48.680;8.894;2023-01-25T06:26:04;1.40;99.90
17385;DHT22;8810;48.680;8.894;2023-01-25T06:28:32;1.40;99.90
17385;DHT22;8810;48.680;8.894;2023-01-25T06:31:04;1.40;99.90
17385;DHT22;8810;48.680;8.894;2023-01-25T06:33:31;1.40;99.90
17385;DHT22;8810;48.680;8.894;2023-01-25T06:35:59;1.40;99.90
17385;DHT22;8810;48.680;8.894;2023-01-25T06:38:27;1.40;99.90
17385;DHT22;8810;48.680;8.894;2023-01-25T06:40:58;1.40;99.90
17385;DHT22;8810;48.680;8.894;2023-01-25T06:43:25;1.40;99.90
17385;DHT22;8810;48.680;8.894;2023-01-25T06:45:51;1.40;99.90
17385;DHT22;8810;48.680;8.894;2023-01-25T06:48:18;1.40;99.90
17385;DHT22;8810;48.680;8.894;2023-01-25T06:50:52;1.40;99.90
17385;DHT22;8810;48.680;8.894;2023-01-25T06:53:19;1.40;99.90
17385;DHT22;8810;48.680;8.894;2023-01-25T06:55:46;1.40;99.90
17385;DHT22;8810;48.680;8.894;2023-01-25T06:58:14;1.40;99.90
17385;DHT22;8810;48.680;8.894;2023-01-25T07:00:41;1.40;99.90
17385;DHT22;8810;48.680;8.894;2023-01-25T07:03:08;1.40;99.90
17385;DHT22;8810;48.680;8.894;2023-01-25T07:05:35;1.40;99.90
17385;DHT22;8810;48.680;8.894;2023-01-25T07:08:02;1.40;99.90
17385;DHT22;8810;48.680;8.894;2023-01-25T07:10:28;1.40;99.90
17385;DHT22;8810;48.680;8.894;2023-01-25T07:12:55;1.40;99.90
17385;DHT22;8810;48.680;8.894;2023-01-25T07:15:24;1.40;99.90
17385;DHT22;8810;48.680;8.894;2023-01-25T07:17:51;1.40;99.90
17385;DHT22;8810;48.680;8.894;2023-01-25T07:20:17;1.40;99.90
17385;DHT22;8810;48.680;8.894;2023-01-25T07:22:44;1.40;99.90
17385;DHT22;8810;48.680;8.894;2023-01-25T07:25:11;1.40;99.90
17385;DHT22;8810;48.680;8.894;2023-01-25T07:27:38;1.40;99.90
17385;DHT22;8810;48.680;8.894;2023-01-25T07:30:06;1.40;99.90
17385;DHT22;8810;48.680;8.894;2023-01-25T07:32:34;1.30;99.90
17385;DHT22;8810;48.680;8.894;2023-01-25T07:35:01;1.40;99.90
17385;DHT22;8810;48.680;8.894;2023-01-25T07:37:28;1.40;99.90
17385;DHT22;8810;48.680;8.894;2023-01-25T07:39:55;1.40;99.90
17385;DHT22;8810;48.680;8.894;2023-01-25T07:42:22;1.40;99.90
17385;DHT22;8810;48.680;8.894;2023-01-25T07:44:49;1.40;99.90
17385;DHT22;8810;48.680;8.894;2023-01-25T07:47:17;1.40;99.90
17385;DHT22;8810;48.680;8.894;2023-01-25T07:49:45;1.40;99.90
17385;DHT22;8810;48.680;8.894;2023-01-25T07:52:12;1.40;99.90
17385;DHT22;8810;48.680;8.894;2023-01-25T07:54:38;1.40;99.90
17385;DHT22;8810;48.680;8.894;2023-01-25T07:57:05;1.40;99.90
17385;DHT22;8810;48.680;8.894;2023-01-25T07:59:32;1.40;99.90
17385;DHT22;8810;48.680;8.894;2023-01-25T08:01:59;1.40;99.90
17385;DHT22;8810;48.680;8.894;2023-01-25T08:04:26;1.40;99.90
17385;DHT22;8810;48.680;8.894;2023-01-25T08:06:55;1.40;99.90
17385;DHT22;8810;48.680;8.894;2023-01-25T08:09:22;1.40;99.90
17385;DHT22;8810;48.680;8.894;2023-01-25T08:11:49;1.40;99.90
17385;DHT22;8810;48.680;8.894;2023-01-25T08:14:18;1.50;99.90
17385;DHT22;8810;48.680;8.894;2023-01-25T08:16:44;1.50;99.90
17385;DHT22;8810;48.680;8.894;2023-01-25T08:19:11;1.50;99.90
17385;DHT22;8810;48.680;8.894;2023-01-25T08:21:38;1.50;99.90
17385;DHT22;8810;48.680;8.894;2023-01-25T08:24:07;1.50;99.90
17385;DHT22;8810;48.680;8.894;2023-01-25T08:26:35;1.50;99.90
17385;DHT22;8810;48.680;8.894;2023-01-25T08:29:03;1.50;99.90
17385;DHT22;8810;48.680;8.894;2023-01-25T08:31:31;1.50;99.90
17385;DHT22;8810;48.680;8.894;2023-01-25T08:33:59;1.50;99.90
17385;DHT22;8810;48.680;8.894;2023-01-25T08:36:27;1.60;99.90
17385;DHT22;8810;48.680;8.894;2023-01-25T08:38:56;1.60;99.90
17385;DHT22;8810;48.680;8.894;2023-01-25T08:41:25;1.60;99.90
17385;DHT22;8810;48.680;8.894;2023-01-25T08:43:53;1.60;99.90
17385;DHT22;8810;48.680;8.894;2023-01-25T08:46:22;1.60;99.90
17385;DHT22;8810;48.680;8.894;2023-01-25T08:48:52;1.60;99.90
17385;DHT22;8810;48.680;8.894;2023-01-25T08:51:19;1.60;99.90
17385;DHT22;8810;48.680;8.894;2023-01-25T08:53:46;1.60;99.90
17385;DHT22;8810;48.680;8.894;2023-01-25T08:56:15;1.60;99.90
17385;DHT22;8810;48.680;8.894;2023-01-25T08:58:44;1.60;99.90
17385;DHT22;8810;48.680;8.894;2023-01-25T09:01:14;1.60;99.90
17385;DHT22;8810;48.680;8.894;2023-01-25T09:03:43;1.60;99.90
17385;DHT22;8810;48.680;8.894;2023-01-25T09:06:11;1.60;99.90
17385;DHT22;8810;48.680;8.894;2023-01-25T09:08:38;1.60;99.90
17385;DHT22;8810;48.680;8.894;2023-01-25T09:11:06;1.60;99.90
17385;DHT22;8810;48.680;8.894;2023-01-25T09:13:34;1.70;99.90
17385;DHT22;8810;48.680;8.894;2023-01-25T09:16:04;1.70;99.90
17385;DHT22;8810;48.680;8.894;2023-01-25T09:18:32;1.70;99.90
17385;DHT22;8810;48.680;8.894;2023-01-25T09:21:04;1.60;99.90
17385;DHT22;8810;48.680;8.894;2023-01-25T09:23:31;1.70;99.90
17385;DHT22;8810;48.680;8.894;2023-01-25T09:25:59;1.70;99.90
17385;DHT22;8810;48.680;8.894;2023-01-25T09:28:27;1.70;99.90
17385;DHT22;8810;48.680;8.894;2023-01-25T09:30:55;1.70;99.90
17385;DHT22;8810;48.680;8.894;2023-01-25T09:33:25;1.70;99.90
17385;DHT22;8810;48.680;8.894;2023-01-25T09:35:52;1.70;99.90
17385;DHT22;8810;48.680;8.894;2023-01-25T09:38:19;1.70;99.90
17385;DHT22;8810;48.680;8.894;2023-01-25T09:40:56;1.80;99.90
17385;DHT22;8810;48.680;8.894;2023-01-25T09:43:36;1.90;99.90
17385;DHT22;8810;48.680;8.894;2023-01-25T09:46:13;1.90;99.90
17385;DHT22;8810;48.680;8.894;2023-01-25T09:48:53;2.00;99.90
17385;DHT22;8810;48.680;8.894;2023-01-25T09:51:25;2.00;99.90
17385;DHT22;8810;48.680;8.894;2023-01-25T09:53:53;2.00;99.90
17385;DHT22;8810;48.680;8.894;2023-01-25T09:56:24;2.00;99.90
17385;DHT22;8810;48.680;8.894;2023-01-25T09:58:55;1.90;99.90
17385;DHT22;8810;48.680;8.894;2023-01-25T10:01:34;1.90;99.90
17385;DHT22;8810;48.680;8.894;2023-01-25T10:04:12;1.90;99.90
17385;DHT22;8810;48.680;8.894;2023-01-25T10:06:42;1.90;99.90
17385;DHT22;8810;48.680;8.894;2023-01-25T10:09:23;1.90;99.90
17385;DHT22;8810;48.680;8.894;2023-01-25T10:11:53;1.80;99.90
17385;DHT22;8810;48.680;8.894;2023-01-25T10:14:20;1.80;99.90
17385;DHT22;8810;48.680;8.894;2023-01-25T10:16:57;1.80;99.90
17385;DHT22;8810;48.680;8.894;2023-01-25T10:19:36;1.80;99.90
17385;DHT22;8810;48.680;8.894;2023-01-25T10:22:11;1.80;99.90
17385;DHT22;8810;48.680;8.894;2023-01-25T10:27:52;1.80;99.90
17385;DHT22;8810;48.680;8.894;2023-01-25T10:30:26;1.80;99.90
17385;DHT22;8810;48.680;8.894;2023-01-25T10:32:56;1.80;99.90
17385;DHT22;8810;48.680;8.894;2023-01-25T10:35:29;1.80;99.90
17385;DHT22;8810;48.680;8.894;2023-01-25T10:38:04;1.80;99.90
17385;DHT22;8810;48.680;8.894;2023-01-25T10:40:39;1.80;99.90
17385;DHT22;8810;48.680;8.894;2023-01-25T10:43:14;1.80;99.90
17385;DHT22;8810;48.680;8.894;2023-01-25T10:45:42;1.80;99.90
17385;DHT22;8810;48.680;8.894;2023-01-25T10:48:13;1.80;99.90
17385;DHT22;8810;48.680;8.894;2023-01-25T10:50:55;1.80;99.90
17385;DHT22;8810;48.680;8.894;2023-01-25T10:53:30;1.80;99.90
17385;DHT22;8810;48.680;8.894;2023-01-25T10:58:46;1.80;99.90
17385;DHT22;8810;48.680;8.894;2023-01-25T11:01:24;1.80;99.90
17385;DHT22;8810;48.680;8.894;2023-01-25T11:03:52;1.80;99.90
17385;DHT22;8810;48.680;8.894;2023-01-25T11:06:31;1.80;99.90
17385;DHT22;8810;48.680;8.894;2023-01-25T11:08:59;1.80;99.90
17385;DHT22;8810;48.680;8.894;2023-01-25T11:11:31;1.80;99.90
17385;DHT22;8810;48.680;8.894;2023-01-25T11:14:00;1.80;99.90
17385;DHT22;8810;48.680;8.894;2023-01-25T11:16:29;1.80;99.90
17385;DHT22;8810;48.680;8.894;2023-01-25T11:18:58;1.80;99.90
17385;DHT22;8810;48.680;8.894;2023-01-25T11:21:28;1.80;99.90
17385;DHT22;8810;48.680;8.894;2023-01-25T11:24:00;1.80;99.90
17385;DHT22;8810;48.680;8.894;2023-01-25T11:26:30;1.80;99.90
17385;DHT22;8810;48.680;8.894;2023-01-25T11:29:12;1.80;99.90
17385;DHT22;8810;48.680;8.894;2023-01-25T11:31:39;1.80;99.90
17385;DHT22;8810;48.680;8.894;2023-01-25T11:34:11;1.80;99.90
17385;DHT22;8810;48.680;8.894;2023-01-25T11:36:50;1.80;99.90
17385;DHT22;8810;48.680;8.894;2023-01-25T11:39:36;1.70;99.90
17385;DHT22;8810;48.680;8.894;2023-01-25T11:42:16;1.80;99.90
17385;DHT22;8810;48.680;8.894;2023-01-25T11:45:01;1.80;99.90
17385;DHT22;8810;48.680;8.894;2023-01-25T11:47:41;1.80;99.90
17385;DHT22;8810;48.680;8.894;2023-01-25T11:50:14;1.70;99.90
17385;DHT22;8810;48.680;8.894;2023-01-25T11:55:44;1.70;99.90
17385;DHT22;8810;48.680;8.894;2023-01-25T11:58:25;1.70;99.90
17385;DHT22;8810;48.680;8.894;2023-01-25T12:01:04;1.70;99.90
17385;DHT22;8810;48.680;8.894;2023-01-25T12:03:55;1.70;99.90
17385;DHT22;8810;48.680;8.894;2023-01-25T12:06:33;1.70;99.90
17385;DHT22;8810;48.680;8.894;2023-01-25T12:09:17;1.70;99.90
17385;DHT22;8810;48.680;8.894;2023-01-25T12:11:55;1.70;99.90
17385;DHT22;8810;48.680;8.894;2023-01-25T12:14:31;1.70;99.90
17385;DHT22;8810;48.680;8.894;2023-01-25T12:17:13;1.70;99.90
17385;DHT22;8810;48.680;8.894;2023-01-25T12:19:57;1.70;99.90
17385;DHT22;8810;48.680;8.894;2023-01-25T12:22:42;1.70;99.90
17385;DHT22;8810;48.680;8.894;2023-01-25T12:25:20;1.70;99.90
17385;DHT22;8810;48.680;8.894;2023-01-25T12:28:06;1.70;99.90
17385;DHT22;8810;48.680;8.894;2023-01-25T12:30:47;1.70;99.90
17385;DHT22;8810;48.680;8.894;2023-01-25T12:33:19;1.70;99.90
17385;DHT22;8810;48.680;8.894;2023-01-25T12:35:52;1.70;99.90
17385;DHT22;8810;48.680;8.894;2023-01-25T12:38:24;1.70;99.90
17385;DHT22;8810;48.680;8.894;2023-01-25T12:40:56;1.70;99.90
17385;DHT22;8810;48.680;8.894;2023-01-25T12:43:27;1.70;99.90
17385;DHT22;8810;48.680;8.894;2023-01-25T12:45:56;1.70;99.90
17385;DHT22;8810;48.680;8.894;2023-01-25T12:48:27;1.70;99.90
17385;DHT22;8810;48.680;8.894;2023-01-25T12:50:56;1.70;99.90
17385;DHT22;8810;48.680;8.894;2023-01-25T12:53:26;1.70;99.90
17385;DHT22;8810;48.680;8.894;2023-01-25T12:55:55;1.70;99.90
17385;DHT22;8810;48.680;8.894;2023-01-25T12:58:30;1.70;99.90
17385;DHT22;8810;48.680;8.894;2023-01-25T13:01:03;1.70;99.90
17385;DHT22;8810;48.680;8.894;2023-01-25T13:03:43;1.70;99.90
17385;DHT22;8810;48.680;8.894;2023-01-25T13:06:17;1.70;99.90
17385;DHT22;8810;48.680;8.894;2023-01-25T13:08:53;1.70;99.90
17385;DHT22;8810;48.680;8.894;2023-01-25T13:11:24;1.70;99.90
17385;DHT22;8810;48.680;8.894;2023-01-25T13:13:52;1.70;99.90
17385;DHT22;8810;48.680;8.894;2023-01-25T13:16:42;1.70;99.90
17385;DHT22;8810;48.680;8.894;2023-01-25T13:19:20;1.70;99.90
17385;DHT22;8810;48.680;8.894;2023-01-25T13:21:48;1.70;99.90
17385;DHT22;8810;48.680;8.894;2023-01-25T13:24:21;1.70;99.90
17385;DHT22;8810;48.680;8.894;2023-01-25T13:27:03;1.70;99.90
17385;DHT22;8810;48.680;8.894;2023-01-25T13:29:53;1.70;99.90
17385;DHT22;8810;48.680;8.894;2023-01-25T13:32:54;1.70;99.90
17385;DHT22;8810;48.680;8.894;2023-01-25T13:38:31;1.70;99.90
17385;DHT22;8810;48.680;8.894;2023-01-25T13:41:12;1.70;99.90
17385;DHT22;8810;48.680;8.894;2023-01-25T13:43:44;1.70;99.90
17385;DHT22;8810;48.680;8.894;2023-01-25T13:46:15;1.60;99.90
17385;DHT22;8810;48.680;8.894;2023-01-25T13:48:51;1.60;99.90
17385;DHT22;8810;48.680;8.894;2023-01-25T13:51:19;1.60;99.90
17385;DHT22;8810;48.680;8.894;2023-01-25T13:53:58;1.60;99.90
17385;DHT22;8810;48.680;8.894;2023-01-25T13:56:28;1.60;99.90
17385;DHT22;8810;48.680;8.894;2023-01-25T13:58:57;1.60;99.90
17385;DHT22;8810;48.680;8.894;2023-01-25T14:01:25;1.60;99.90
17385;DHT22;8810;48.680;8.894;2023-01-25T14:03:55;1.60;99.90
17385;DHT22;8810;48.680;8.894;2023-01-25T14:06:26;1.60;99.90
17385;DHT22;8810;48.680;8.894;2023-01-25T14:08:55;1.60;99.90
17385;DHT22;8810;48.680;8.894;2023-01-25T14:11:24;1.60;99.90
17385;DHT22;8810;48.680;8.894;2023-01-25T14:13:57;1.60;99.90
17385;DHT22;8810;48.680;8.894;2023-01-25T14:16:25;1.60;99.90
17385;DHT22;8810;48.680;8.894;2023-01-25T14:18:55;1.60;99.90
17385;DHT22;8810;48.680;8.894;2023-01-25T14:21:22;1.60;99.90
17385;DHT22;8810;48.680;8.894;2023-01-25T14:23:50;1.60;99.90
17385;DHT22;8810;48.680;8.894;2023-01-25T14:26:20;1.50;99.90
17385;DHT22;8810;48.680;8.894;2023-01-25T14:28:50;1.50;99.90
17385;DHT22;8810;48.680;8.894;2023-01-25T14:31:22;1.50;99.90
17385;DHT22;8810;48.680;8.894;2023-01-25T14:33:50;1.50;99.90
17385;DHT22;8810;48.680;8.894;2023-01-25T14:36:23;1.50;99.90
17385;DHT22;8810;48.680;8.894;2023-01-25T14:38:52;1.50;99.90
17385;DHT22;8810;48.680;8.894;2023-01-25T14:41:23;1.50;99.90
17385;DHT22;8810;48.680;8.894;2023-01-25T14:43:53;1.50;99.90
17385;DHT22;8810;48.680;8.894;2023-01-25T14:46:29;1.50;99.90
17385;DHT22;8810;48.680;8.894;2023-01-25T14:49:16;1.50;99.90
17385;DHT22;8810;48.680;8.894;2023-01-25T14:51:52;1.50;99.90
17385;DHT22;8810;48.680;8.894;2023-01-25T14:54:22;1.50;99.90
17385;DHT22;8810;48.680;8.894;2023-01-25T14:56:52;1.50;99.90
17385;DHT22;8810;48.680;8.894;2023-01-25T14:59:27;1.40;99.90
17385;DHT22;8810;48.680;8.894;2023-01-25T15:01:58;1.50;99.90
17385;DHT22;8810;48.680;8.894;2023-01-25T15:04:26;1.40;99.90
17385;DHT22;8810;48.680;8.894;2023-01-25T15:06:54;1.40;99.90
17385;DHT22;8810;48.680;8.894;2023-01-25T15:09:36;1.40;99.90
17385;DHT22;8810;48.680;8.894;2023-01-25T15:12:05;1.40;99.90
17385;DHT22;8810;48.680;8.894;2023-01-25T15:14:47;1.40;99.90
17385;DHT22;8810;48.680;8.894;2023-01-25T15:17:43;1.40;99.90
17385;DHT22;8810;48.680;8.894;2023-01-25T15:20:28;1.40;99.90
17385;DHT22;8810;48.680;8.894;2023-01-25T15:22:57;1.40;99.90
17385;DHT22;8810;48.680;8.894;2023-01-25T15:25:25;1.40;99.90
17385;DHT22;8810;48.680;8.894;2023-01-25T15:27:52;1.30;99.90
17385;DHT22;8810;48.680;8.894;2023-01-25T15:30:19;1.40;99.90
17385;DHT22;8810;48.680;8.894;2023-01-25T15:32:48;1.30;99.90
17385;DHT22;8810;48.680;8.894;2023-01-25T15:35:17;1.30;99.90
17385;DHT22;8810;48.680;8.894;2023-01-25T15:37:44;1.30;99.90
17385;DHT22;8810;48.680;8.894;2023-01-25T15:40:11;1.30;99.90
17385;DHT22;8810;48.680;8.894;2023-01-25T15:42:39;1.30;99.90
17385;DHT22;8810;48.680;8.894;2023-01-25T15:45:07;1.30;99.90
17385;DHT22;8810;48.680;8.894;2023-01-25T15:47:35;1.30;99.90
17385;DHT22;8810;48.680;8.894;2023-01-25T15:50:04;1.30;99.90
17385;DHT22;8810;48.680;8.894;2023-01-25T15:52:31;1.30;99.90
17385;DHT22;8810;48.680;8.894;2023-01-25T15:54:58;1.20;99.90
17385;DHT22;8810;48.680;8.894;2023-01-25T15:57:28;1.30;99.90
17385;DHT22;8810;48.680;8.894;2023-01-25T15:59:55;1.30;99.90
17385;DHT22;8810;48.680;8.894;2023-01-25T16:02:22;1.20;99.90
17385;DHT22;8810;48.680;8.894;2023-01-25T16:04:50;1.20;99.90
17385;DHT22;8810;48.680;8.894;2023-01-25T16:07:22;1.10;99.90
17385;DHT22;8810;48.680;8.894;2023-01-25T16:09:50;1.00;99.90
17385;DHT22;8810;48.680;8.894;2023-01-25T16:12:17;1.10;99.90
17385;DHT22;8810;48.680;8.894;2023-01-25T16:14:44;1.00;99.90
17385;DHT22;8810;48.680;8.894;2023-01-25T16:17:16;1.00;99.90
17385;DHT22;8810;48.680;8.894;2023-01-25T16:19:44;1.00;99.90
17385;DHT22;8810;48.680;8.894;2023-01-25T16:22:12;1.00;99.90
17385;DHT22;8810;48.680;8.894;2023-01-25T16:24:42;1.00;99.90
17385;DHT22;8810;48.680;8.894;2023-01-25T16:27:14;1.00;99.90
17385;DHT22;8810;48.680;8.894;2023-01-25T16:29:45;0.90;99.90
17385;DHT22;8810;48.680;8.894;2023-01-25T16:32:12;0.90;99.90